createdAt,value
2018-12-17T00:00:24.238Z,1001.79
2018-12-17T00:01:24.226Z,1001.78
2018-12-17T00:02:24.214Z,1001.77
2018-12-17T00:03:24.262Z,1001.78
2018-12-17T00:04:24.194Z,1001.77
2018-12-17T00:05:24.182Z,1001.76
2018-12-17T00:06:24.171Z,1001.75
2018-12-17T00:07:24.158Z,1001.80
2018-12-17T00:08:24.151Z,1001.74
2018-12-17T00:09:24.415Z,1001.80
2018-12-17T00:10:24.127Z,1001.86
2018-12-17T00:11:24.116Z,1001.87
2018-12-17T00:12:24.102Z,1001.79
2018-12-17T00:13:24.097Z,1001.78
2018-12-17T00:14:24.086Z,1001.79
2018-12-17T00:15:24.115Z,1001.73
2018-12-17T00:16:24.061Z,1001.73
2018-12-17T00:17:24.047Z,1001.74
2018-12-17T00:18:24.038Z,1001.72
2018-12-17T00:19:24.026Z,1001.73
2018-12-17T00:20:24.015Z,1001.76
2018-12-17T00:21:24.086Z,1001.77
2018-12-17T00:22:23.994Z,1001.78
2018-12-17T00:23:23.986Z,1001.78
2018-12-17T00:24:23.970Z,1001.81
2018-12-17T00:25:23.958Z,1001.90
2018-12-17T00:26:23.952Z,1001.84
2018-12-17T00:27:23.965Z,1001.94
2018-12-17T00:28:23.927Z,1001.94
2018-12-17T00:29:23.914Z,1001.92
2018-12-17T00:30:23.903Z,1001.93
2018-12-17T00:31:23.891Z,1001.94
2018-12-17T00:32:23.907Z,1001.95
2018-12-17T00:33:23.895Z,1001.94
2018-12-17T00:34:23.861Z,1001.98
2018-12-17T00:35:23.846Z,1002.03
2018-12-17T00:36:23.834Z,1001.99
2018-12-17T00:37:23.827Z,1002.03
2018-12-17T00:38:23.847Z,1002.02
2018-12-17T00:39:23.807Z,1002.00
2018-12-17T00:40:23.791Z,1001.97
2018-12-17T00:41:23.783Z,1001.99
2018-12-17T00:42:23.771Z,1002.02
2018-12-17T00:43:23.764Z,1002.07
2018-12-17T00:44:23.791Z,1002.05
2018-12-17T00:45:23.739Z,1002.00
2018-12-17T00:46:23.727Z,1001.99
2018-12-17T00:47:23.715Z,1002.04
2018-12-17T00:48:23.703Z,1002.08
2018-12-17T00:49:23.727Z,1002.02
2018-12-17T00:50:23.716Z,1002.03
2018-12-17T00:51:23.671Z,1002.04
2018-12-17T00:52:23.664Z,1002.01
2018-12-17T00:53:23.651Z,1002.12
2018-12-17T00:54:23.635Z,1002.13
2018-12-17T00:55:23.643Z,1002.06
2018-12-17T00:56:23.662Z,1002.09
2018-12-17T00:57:23.603Z,1002.06
2018-12-17T00:58:23.590Z,1002.08
2018-12-17T00:59:23.582Z,1002.09
2018-12-17T01:00:23.574Z,1002.08
2018-12-17T01:01:23.559Z,1002.11
2018-12-17T01:02:23.587Z,1002.20
2018-12-17T01:03:23.543Z,1002.23
2018-12-17T01:04:23.527Z,1002.15
2018-12-17T01:05:23.515Z,1002.16
2018-12-17T01:06:23.502Z,1002.19
2018-12-17T01:07:23.519Z,1002.20
2018-12-17T01:08:23.479Z,1002.22
2018-12-17T01:09:23.496Z,1002.27
2018-12-17T01:10:23.459Z,1002.26
2018-12-17T01:11:23.450Z,1002.27
2018-12-17T01:12:23.439Z,1002.30
2018-12-17T01:13:23.439Z,1002.27
2018-12-17T01:14:23.415Z,1002.23
2018-12-17T01:15:23.414Z,1002.27
2018-12-17T01:16:23.393Z,1002.28
2018-12-17T01:17:23.395Z,1002.29
2018-12-17T01:18:23.371Z,1002.30
2018-12-17T01:19:23.370Z,1002.27
2018-12-17T01:20:23.358Z,1002.33
2018-12-17T01:21:23.361Z,1002.32
2018-12-17T01:22:23.322Z,1002.32
2018-12-17T01:23:23.315Z,1002.32
2018-12-17T01:24:23.323Z,1002.35
2018-12-17T01:25:23.292Z,1002.31
2018-12-17T01:26:23.280Z,1002.36
2018-12-17T01:27:23.299Z,1002.33
2018-12-17T01:28:23.282Z,1002.35
2018-12-17T01:29:23.246Z,1002.35
2018-12-17T01:30:23.235Z,1002.39
2018-12-17T01:31:23.222Z,1002.37
2018-12-17T01:32:23.211Z,1002.42
2018-12-17T01:33:23.227Z,1002.41
2018-12-17T01:34:23.208Z,1002.37
2018-12-17T01:35:23.179Z,1002.36
2018-12-17T01:36:23.170Z,1002.38
2018-12-17T01:37:23.158Z,1002.41
2018-12-17T01:38:23.147Z,1002.36
2018-12-17T01:39:23.175Z,1002.37
2018-12-17T01:40:23.138Z,1002.39
2018-12-17T01:41:23.112Z,1002.46
2018-12-17T01:42:23.103Z,1002.42
2018-12-17T01:43:23.090Z,1002.43
2018-12-17T01:44:23.079Z,1002.42
2018-12-17T01:45:23.099Z,1002.46
2018-12-17T01:46:23.059Z,1002.44
2018-12-17T01:47:23.047Z,1002.44
2018-12-17T01:48:23.035Z,1002.39
2018-12-17T01:49:23.027Z,1002.45
2018-12-17T01:50:23.010Z,1002.37
2018-12-17T01:51:23.035Z,1002.43
2018-12-17T01:52:22.994Z,1002.46
2018-12-17T01:53:22.978Z,1002.43
2018-12-17T01:54:22.968Z,1002.41
2018-12-17T01:55:22.954Z,1002.41
2018-12-17T01:56:22.962Z,1002.44
2018-12-17T01:57:22.970Z,1002.40
2018-12-17T01:58:29.044Z,1002.47
2018-12-17T01:59:23.910Z,1002.44
2018-12-17T02:00:22.902Z,1002.45
2018-12-17T02:01:22.890Z,1002.46
2018-12-17T02:02:22.892Z,1002.46
2018-12-17T02:03:22.890Z,1002.47
2018-12-17T02:04:22.862Z,1002.43
2018-12-17T02:05:22.850Z,1002.46
2018-12-17T02:06:22.834Z,1002.45
2018-12-17T02:07:22.838Z,1002.47
2018-12-17T02:08:22.815Z,1002.44
2018-12-17T02:09:22.818Z,1002.42
2018-12-17T02:10:22.790Z,1002.37
2018-12-17T02:11:22.778Z,1002.36
2018-12-17T02:12:22.766Z,1002.40
2018-12-17T02:13:22.770Z,1002.38
2018-12-17T02:14:22.742Z,1002.35
2018-12-17T02:15:22.780Z,1002.36
2018-12-17T02:16:22.723Z,1002.34
2018-12-17T02:17:22.710Z,1002.31
2018-12-17T02:18:22.723Z,1002.37
2018-12-17T02:19:22.698Z,1002.31
2018-12-17T02:20:22.694Z,1002.36
2018-12-17T02:21:22.731Z,1002.40
2018-12-17T02:22:22.658Z,1002.38
2018-12-17T02:23:22.659Z,1002.41
2018-12-17T02:24:22.634Z,1002.45
2018-12-17T02:25:22.624Z,1002.41
2018-12-17T02:26:22.622Z,1002.44
2018-12-17T02:27:22.630Z,1002.45
2018-12-17T02:28:22.593Z,1002.45
2018-12-17T02:29:22.579Z,1002.41
2018-12-17T02:30:22.572Z,1002.42
2018-12-17T02:31:22.583Z,1002.42
2018-12-17T02:32:22.546Z,1002.43
2018-12-17T02:33:22.550Z,1002.47
2018-12-17T02:34:22.527Z,1002.40
2018-12-17T02:35:24.939Z,1002.48
2018-12-17T02:36:22.503Z,1002.45
2018-12-17T02:37:22.515Z,1002.44
2018-12-17T02:38:22.490Z,1002.41
2018-12-17T02:39:22.474Z,1002.41
2018-12-17T02:40:22.454Z,1002.37
2018-12-17T02:41:22.443Z,1002.42
2018-12-17T02:42:22.437Z,1002.47
2018-12-17T02:43:22.437Z,1002.46
2018-12-17T02:44:22.410Z,1002.49
2018-12-17T02:45:22.523Z,1002.48
2018-12-17T02:46:22.385Z,1002.47
2018-12-17T02:47:22.380Z,1002.46
2018-12-17T02:48:22.366Z,1002.45
2018-12-17T02:49:22.365Z,1002.47
2018-12-17T02:50:22.346Z,1002.47
2018-12-17T02:51:22.345Z,1002.46
2018-12-17T02:52:22.393Z,1002.48
2018-12-17T02:53:22.310Z,1002.45
2018-12-17T02:54:22.314Z,1002.45
2018-12-17T02:55:22.291Z,1002.47
2018-12-17T02:56:22.278Z,1002.48
2018-12-17T02:57:22.294Z,1002.44
2018-12-17T02:58:22.253Z,1002.41
2018-12-17T02:59:22.257Z,1002.40
2018-12-17T03:00:22.234Z,1002.43
2018-12-17T03:01:22.222Z,1002.37
2018-12-17T03:02:22.210Z,1002.34
2018-12-17T03:03:22.222Z,1002.37
2018-12-17T03:04:22.197Z,1002.33
2018-12-17T03:05:22.190Z,1002.27
2018-12-17T03:06:22.165Z,1002.30
2018-12-17T03:07:22.153Z,1002.28
2018-12-17T03:08:22.141Z,1002.27
2018-12-17T03:09:22.146Z,1002.27
2018-12-17T03:10:22.148Z,1002.23
2018-12-17T03:11:22.113Z,1002.29
2018-12-17T03:12:22.101Z,1002.31
2018-12-17T03:13:22.085Z,1002.26
2018-12-17T03:14:22.078Z,1002.30
2018-12-17T03:15:22.097Z,1002.32
2018-12-17T03:16:22.065Z,1002.40
2018-12-17T03:17:22.049Z,1002.51
2018-12-17T03:18:22.037Z,1002.51
2018-12-17T03:19:22.024Z,1002.56
2018-12-17T03:20:22.010Z,1002.60
2018-12-17T03:21:22.026Z,1002.61
2018-12-17T03:22:21.985Z,1002.64
2018-12-17T03:23:21.978Z,1002.62
2018-12-17T03:24:21.968Z,1002.61
2018-12-17T03:25:21.960Z,1002.62
2018-12-17T03:26:21.945Z,1002.65
2018-12-17T03:27:21.975Z,1002.60
2018-12-17T03:28:21.927Z,1002.64
2018-12-17T03:29:21.910Z,1002.67
2018-12-17T03:30:21.916Z,1002.67
2018-12-17T03:31:21.886Z,1002.73
2018-12-17T03:32:21.875Z,1002.69
2018-12-17T03:33:21.905Z,1002.64
2018-12-17T03:34:21.853Z,1002.67
2018-12-17T03:35:21.842Z,1002.67
2018-12-17T03:36:21.831Z,1002.66
2018-12-17T03:37:21.822Z,1002.63
2018-12-17T03:38:21.814Z,1002.60
2018-12-17T03:39:21.822Z,1002.57
2018-12-17T03:40:21.815Z,1002.56
2018-12-17T03:41:21.775Z,1002.59
2018-12-17T03:42:21.766Z,1002.59
2018-12-17T03:43:21.753Z,1002.62
2018-12-17T03:44:21.742Z,1002.61
2018-12-17T03:45:21.750Z,1002.58
2018-12-17T03:46:21.746Z,1002.59
2018-12-17T03:47:21.710Z,1002.62
2018-12-17T03:48:21.699Z,1002.56
2018-12-17T03:49:21.686Z,1002.61
2018-12-17T03:50:21.675Z,1002.60
2018-12-17T03:51:21.682Z,1002.63
2018-12-17T03:52:21.665Z,1002.64
2018-12-17T03:53:21.643Z,1002.65
2018-12-17T03:54:21.629Z,1002.67
2018-12-17T03:55:21.619Z,1002.66
2018-12-17T03:56:21.610Z,1002.66
2018-12-17T03:57:21.658Z,1002.63
2018-12-17T03:58:21.585Z,1002.68
2018-12-17T03:59:21.573Z,1002.67
2018-12-17T04:00:21.566Z,1002.68
2018-12-17T04:01:21.554Z,1002.69
2018-12-17T04:02:21.546Z,1002.69
2018-12-17T04:03:22.270Z,1002.70
2018-12-17T04:04:21.582Z,1002.69
2018-12-17T04:05:21.606Z,1002.70
2018-12-17T04:06:21.501Z,1002.75
2018-12-17T04:07:21.486Z,1002.74
2018-12-17T04:08:21.478Z,1002.76
2018-12-17T04:09:21.494Z,1002.78
2018-12-17T04:10:21.454Z,1002.76
2018-12-17T04:11:21.446Z,1002.75
2018-12-17T04:12:21.429Z,1002.79
2018-12-17T04:13:21.417Z,1002.75
2018-12-17T04:14:21.415Z,1002.71
2018-12-17T04:15:21.441Z,1002.75
2018-12-17T04:16:21.386Z,1002.76
2018-12-17T04:17:21.373Z,1002.73
2018-12-17T04:18:21.361Z,1002.73
2018-12-17T04:19:21.353Z,1002.73
2018-12-17T04:20:21.346Z,1002.72
2018-12-17T04:21:21.385Z,1002.73
2018-12-17T04:22:21.327Z,1002.72
2018-12-17T04:23:21.309Z,1002.72
2018-12-17T04:24:21.297Z,1002.74
2018-12-17T04:25:21.285Z,1002.75
2018-12-17T04:26:21.273Z,1002.75
2018-12-17T04:27:21.289Z,1002.77
2018-12-17T04:28:21.270Z,1002.80
2018-12-17T04:29:21.242Z,1002.79
2018-12-17T04:30:21.229Z,1002.79
2018-12-17T04:31:21.217Z,1002.76
2018-12-17T04:32:21.213Z,1002.80
2018-12-17T04:33:21.232Z,1002.82
2018-12-17T04:34:21.205Z,1002.81
2018-12-17T04:35:21.174Z,1002.85
2018-12-17T04:36:21.161Z,1002.83
2018-12-17T04:37:21.154Z,1002.85
2018-12-17T04:38:21.157Z,1002.87
2018-12-17T04:39:21.157Z,1002.88
2018-12-17T04:40:21.137Z,1002.88
2018-12-17T04:41:21.105Z,1002.89
2018-12-17T04:42:21.097Z,1002.96
2018-12-17T04:43:21.088Z,1002.95
2018-12-17T04:44:21.089Z,1002.95
2018-12-17T04:45:21.061Z,1002.94
2018-12-17T04:46:21.094Z,1002.97
2018-12-17T04:47:21.042Z,1002.97
2018-12-17T04:48:21.029Z,1002.99
2018-12-17T04:49:21.017Z,1002.97
2018-12-17T04:50:21.018Z,1002.99
2018-12-17T04:51:21.017Z,1003.04
2018-12-17T04:52:21.001Z,1003.00
2018-12-17T04:53:20.973Z,1003.03
2018-12-17T04:54:20.965Z,1003.05
2018-12-17T04:55:20.962Z,1003.04
2018-12-17T04:56:20.957Z,1003.05
2018-12-17T04:57:20.929Z,1003.11
2018-12-17T04:58:20.942Z,1003.09
2018-12-17T04:59:20.905Z,1003.03
2018-12-17T05:00:20.903Z,1003.01
2018-12-17T05:01:20.885Z,1003.03
2018-12-17T05:02:20.896Z,1003.03
2018-12-17T05:03:20.861Z,1003.03
2018-12-17T05:04:20.866Z,1002.97
2018-12-17T05:05:20.845Z,1002.95
2018-12-17T05:06:20.829Z,1002.99
2018-12-17T05:07:20.827Z,1002.99
2018-12-17T05:08:20.825Z,1002.97
2018-12-17T05:09:20.797Z,1002.98
2018-12-17T05:10:20.809Z,1002.98
2018-12-17T05:11:20.778Z,1002.99
2018-12-17T05:12:20.761Z,1003.01
2018-12-17T05:13:20.769Z,1003.02
2018-12-17T05:14:20.754Z,1003.01
2018-12-17T05:15:20.734Z,1003.03
2018-12-17T05:16:20.729Z,1003.11
2018-12-17T05:17:20.784Z,1003.12
2018-12-17T05:18:20.699Z,1003.07
2018-12-17T05:19:20.686Z,1003.09
2018-12-17T05:20:20.705Z,1003.08
2018-12-17T05:21:20.673Z,1003.12
2018-12-17T05:22:20.649Z,1003.17
2018-12-17T05:23:20.643Z,1003.17
2018-12-17T05:24:20.630Z,1003.17
2018-12-17T05:25:20.619Z,1003.11
2018-12-17T05:26:20.623Z,1003.12
2018-12-17T05:27:20.633Z,1003.14
2018-12-17T05:28:20.585Z,1003.09
2018-12-17T05:29:21.715Z,1003.14
2018-12-17T05:30:20.564Z,1003.12
2018-12-17T05:31:20.554Z,1003.15
2018-12-17T05:32:20.555Z,1003.20
2018-12-17T05:33:20.546Z,1003.13
2018-12-17T05:34:20.517Z,1003.20
2018-12-17T05:35:20.509Z,1003.21
2018-12-17T05:36:20.494Z,1003.23
2018-12-17T05:37:20.497Z,1003.19
2018-12-17T05:38:20.495Z,1003.22
2018-12-17T05:39:20.486Z,1003.25
2018-12-17T05:40:20.449Z,1003.29
2018-12-17T05:41:20.437Z,1003.24
2018-12-17T05:42:20.430Z,1003.33
2018-12-17T05:43:20.434Z,1003.27
2018-12-17T05:44:20.405Z,1003.28
2018-12-17T05:45:20.418Z,1003.33
2018-12-17T05:46:20.386Z,1003.34
2018-12-17T05:47:20.374Z,1003.31
2018-12-17T05:48:20.378Z,1003.40
2018-12-17T05:49:20.352Z,1003.37
2018-12-17T05:50:20.339Z,1003.36
2018-12-17T05:51:20.338Z,1003.36
2018-12-17T05:52:20.317Z,1003.37
2018-12-17T05:53:20.309Z,1003.39
2018-12-17T05:54:20.305Z,1003.40
2018-12-17T05:55:20.293Z,1003.39
2018-12-17T05:56:20.274Z,1003.40
2018-12-17T05:57:20.290Z,1003.41
2018-12-17T05:58:20.249Z,1003.45
2018-12-17T05:59:20.239Z,1003.37
2018-12-17T06:00:20.238Z,1003.39
2018-12-17T06:01:20.233Z,1003.38
2018-12-17T06:02:20.211Z,1003.37
2018-12-17T06:03:20.213Z,1003.41
2018-12-17T06:04:20.181Z,1003.39
2018-12-17T06:05:20.171Z,1003.42
2018-12-17T06:06:20.165Z,1003.41
2018-12-17T06:07:20.170Z,1003.47
2018-12-17T06:08:20.137Z,1003.45
2018-12-17T06:09:20.146Z,1003.45
2018-12-17T06:10:20.117Z,1003.50
2018-12-17T06:11:20.105Z,1003.52
2018-12-17T06:12:20.095Z,1003.51
2018-12-17T06:13:20.105Z,1003.58
2018-12-17T06:14:20.073Z,1003.58
2018-12-17T06:15:20.070Z,1003.52
2018-12-17T06:16:20.050Z,1003.52
2018-12-17T06:17:20.037Z,1003.57
2018-12-17T06:18:20.027Z,1003.56
2018-12-17T06:19:20.025Z,1003.57
2018-12-17T06:20:20.005Z,1003.62
2018-12-17T06:21:20.012Z,1003.57
2018-12-17T06:22:19.983Z,1003.54
2018-12-17T06:23:19.969Z,1003.56
2018-12-17T06:24:19.981Z,1003.60
2018-12-17T06:25:19.954Z,1003.65
2018-12-17T06:26:19.937Z,1003.62
2018-12-17T06:27:19.934Z,1003.61
2018-12-17T06:28:19.921Z,1003.64
2018-12-17T06:29:19.905Z,1003.64
2018-12-17T06:30:19.910Z,1003.67
2018-12-17T06:31:19.882Z,1003.68
2018-12-17T06:32:19.869Z,1003.66
2018-12-17T06:33:19.867Z,1003.70
2018-12-17T06:34:19.849Z,1003.75
2018-12-17T06:35:19.842Z,1003.76
2018-12-17T06:36:19.838Z,1003.80
2018-12-17T06:37:19.829Z,1003.77
2018-12-17T06:38:19.805Z,1003.77
2018-12-17T06:39:19.810Z,1003.81
2018-12-17T06:40:19.781Z,1003.79
2018-12-17T06:41:19.769Z,1003.75
2018-12-17T06:42:19.773Z,1003.74
2018-12-17T06:43:19.749Z,1003.76
2018-12-17T06:44:19.740Z,1003.75
2018-12-17T06:45:19.745Z,1003.73
2018-12-17T06:46:19.713Z,1003.70
2018-12-17T06:47:19.709Z,1003.70
2018-12-17T06:48:19.710Z,1003.71
2018-12-17T06:49:19.681Z,1003.74
2018-12-17T06:50:19.671Z,1003.71
2018-12-17T06:51:19.673Z,1003.77
2018-12-17T06:52:19.652Z,1003.73
2018-12-17T06:53:19.641Z,1003.71
2018-12-17T06:54:19.633Z,1003.74
2018-12-17T06:55:19.617Z,1003.74
2018-12-17T06:56:19.601Z,1003.75
2018-12-17T06:57:19.597Z,1003.80
2018-12-17T06:58:19.585Z,1003.85
2018-12-17T06:59:19.589Z,1003.85
2018-12-17T07:00:19.557Z,1003.86
2018-12-17T07:01:19.546Z,1003.90
2018-12-17T07:02:19.537Z,1003.90
2018-12-17T07:03:19.526Z,1003.87
2018-12-17T07:04:19.517Z,1003.90
2018-12-17T07:05:19.524Z,1003.90
2018-12-17T07:06:19.508Z,1003.92
2018-12-17T07:07:19.480Z,1003.90
2018-12-17T07:08:19.475Z,1003.94
2018-12-17T07:09:19.457Z,1003.97
2018-12-17T07:10:19.449Z,1003.94
2018-12-17T07:11:19.447Z,1003.98
2018-12-17T07:12:19.438Z,1003.91
2018-12-17T07:13:19.413Z,1003.90
2018-12-17T07:14:19.403Z,1003.96
2018-12-17T07:15:19.394Z,1003.93
2018-12-17T07:16:19.377Z,1003.95
2018-12-17T07:17:19.390Z,1003.92
2018-12-17T07:18:19.373Z,1003.97
2018-12-17T07:19:19.345Z,1004.03
2018-12-17T07:20:19.341Z,1004.00
2018-12-17T07:21:19.329Z,1004.04
2018-12-17T07:22:19.313Z,1004.05
2018-12-17T07:23:19.311Z,1004.04
2018-12-17T07:24:19.364Z,1004.04
2018-12-17T07:25:19.285Z,1004.03
2018-12-17T07:26:19.265Z,1004.04
2018-12-17T07:27:19.257Z,1004.01
2018-12-17T07:28:19.245Z,1003.99
2018-12-17T07:29:19.277Z,1004.00
2018-12-17T07:30:19.221Z,1004.03
2018-12-17T07:31:19.215Z,1003.97
2018-12-17T07:32:19.205Z,1003.98
2018-12-17T07:33:19.189Z,1004.07
2018-12-17T07:34:19.177Z,1004.07
2018-12-17T07:35:19.198Z,1004.05
2018-12-17T07:36:19.157Z,1004.09
2018-12-17T07:37:19.146Z,1004.14
2018-12-17T07:38:19.134Z,1004.13
2018-12-17T07:39:19.121Z,1004.16
2018-12-17T07:40:19.111Z,1004.19
2018-12-17T07:41:19.130Z,1004.17
2018-12-17T07:42:19.095Z,1004.23
2018-12-17T07:43:19.078Z,1004.23
2018-12-17T07:44:19.066Z,1004.26
2018-12-17T07:45:19.061Z,1004.29
2018-12-17T07:46:19.047Z,1004.23
2018-12-17T07:47:19.066Z,1004.25
2018-12-17T07:48:19.023Z,1004.32
2018-12-17T07:49:19.012Z,1004.26
2018-12-17T07:50:19.001Z,1004.32
2018-12-17T07:51:18.990Z,1004.28
2018-12-17T07:52:18.994Z,1004.36
2018-12-17T07:53:18.974Z,1004.34
2018-12-17T07:54:18.976Z,1004.35
2018-12-17T07:55:18.942Z,1004.36
2018-12-17T07:56:18.934Z,1004.39
2018-12-17T07:57:18.922Z,1004.36
2018-12-17T07:58:18.910Z,1004.40
2018-12-17T07:59:18.918Z,1004.39
2018-12-17T08:00:18.900Z,1004.41
2018-12-17T08:01:18.891Z,1004.40
2018-12-17T08:02:18.864Z,1004.43
2018-12-17T08:03:18.856Z,1004.50
2018-12-17T08:04:18.848Z,1004.43
2018-12-17T08:05:18.848Z,1004.44
2018-12-17T08:06:18.832Z,1004.48
2018-12-17T08:07:18.812Z,1004.49
2018-12-17T08:08:18.809Z,1004.47
2018-12-17T08:09:18.788Z,1004.48
2018-12-17T08:10:18.780Z,1004.52
2018-12-17T08:11:18.780Z,1004.51
2018-12-17T08:12:18.768Z,1004.51
2018-12-17T08:13:18.744Z,1004.49
2018-12-17T08:14:18.735Z,1004.50
2018-12-17T08:15:18.720Z,1004.51
2018-12-17T08:16:18.708Z,1004.54
2018-12-17T08:17:18.705Z,1004.55
2018-12-17T08:18:18.704Z,1004.57
2018-12-17T08:19:18.676Z,1004.55
2018-12-17T08:20:18.664Z,1004.54
2018-12-17T08:21:18.653Z,1004.59
2018-12-17T08:22:18.644Z,1004.55
2018-12-17T08:23:18.652Z,1004.60
2018-12-17T08:24:18.628Z,1004.59
2018-12-17T08:25:18.609Z,1004.53
2018-12-17T08:26:18.596Z,1004.60
2018-12-17T08:27:18.590Z,1004.62
2018-12-17T08:28:18.600Z,1004.60
2018-12-17T08:29:18.564Z,1004.63
2018-12-17T08:30:18.579Z,1004.57
2018-12-17T08:31:18.547Z,1004.57
2018-12-17T08:32:18.538Z,1004.56
2018-12-17T08:33:18.520Z,1004.59
2018-12-17T08:34:18.528Z,1004.58
2018-12-17T08:35:18.497Z,1004.56
2018-12-17T08:36:18.496Z,1004.62
2018-12-17T08:37:18.475Z,1004.59
2018-12-17T08:38:18.464Z,1004.60
2018-12-17T08:39:18.460Z,1004.61
2018-12-17T08:40:18.460Z,1004.64
2018-12-17T08:41:18.435Z,1004.63
2018-12-17T08:42:18.424Z,1004.65
2018-12-17T08:43:18.411Z,1004.67
2018-12-17T08:44:18.395Z,1004.70
2018-12-17T08:45:18.388Z,1004.69
2018-12-17T08:46:18.398Z,1004.74
2018-12-17T08:47:18.364Z,1004.73
2018-12-17T08:48:18.368Z,1004.76
2018-12-17T08:49:18.348Z,1004.75
2018-12-17T08:50:18.328Z,1004.75
2018-12-17T08:51:18.316Z,1004.81
2018-12-17T08:52:18.316Z,1004.86
2018-12-17T08:53:18.297Z,1004.80
2018-12-17T08:54:18.284Z,1004.86
2018-12-17T08:55:18.277Z,1004.86
2018-12-17T08:56:18.261Z,1004.88
2018-12-17T08:57:18.289Z,1004.94
2018-12-17T08:58:18.240Z,1004.91
2018-12-17T08:59:18.228Z,1004.92
2018-12-17T09:00:18.218Z,1004.90
2018-12-17T09:01:18.216Z,1004.97
2018-12-17T09:02:18.196Z,1004.99
2018-12-17T09:03:18.200Z,1004.96
2018-12-17T09:04:18.173Z,1004.92
2018-12-17T09:05:18.161Z,1004.95
2018-12-17T09:06:18.152Z,1004.97
2018-12-17T09:07:18.148Z,1004.95
2018-12-17T09:08:18.127Z,1004.94
2018-12-17T09:09:18.136Z,1004.94
2018-12-17T09:10:18.104Z,1004.97
2018-12-17T09:11:18.096Z,1004.97
2018-12-17T09:12:18.089Z,1004.98
2018-12-17T09:13:18.083Z,1004.98
2018-12-17T09:14:18.064Z,1004.97
2018-12-17T09:15:18.068Z,1004.97
2018-12-17T09:16:18.044Z,1004.97
2018-12-17T09:17:18.028Z,1004.99
2018-12-17T09:18:18.016Z,1004.94
2018-12-17T09:19:32.528Z,1004.96
2018-12-17T09:20:18.000Z,1005.00
2018-12-17T09:21:18.000Z,1005.05
2018-12-17T09:22:17.972Z,1004.99
2018-12-17T09:23:17.959Z,1005.02
2018-12-17T09:24:17.963Z,1005.04
2018-12-17T09:25:17.938Z,1005.00
2018-12-17T09:26:17.929Z,1005.05
2018-12-17T09:27:17.935Z,1005.05
2018-12-17T09:28:17.907Z,1005.05
2018-12-17T09:29:17.900Z,1005.03
2018-12-17T09:30:18.556Z,1005.11
2018-12-17T09:31:17.871Z,1005.09
2018-12-17T09:32:17.859Z,1005.10
2018-12-17T09:33:17.859Z,1005.08
2018-12-17T09:34:17.842Z,1005.13
2018-12-17T09:35:17.832Z,1005.14
2018-12-17T09:36:17.826Z,1005.03
2018-12-17T09:37:17.808Z,1005.03
2018-12-17T09:38:17.814Z,1005.15
2018-12-17T09:39:17.785Z,1005.08
2018-12-17T09:40:17.770Z,1005.18
2018-12-17T09:41:17.763Z,1005.10
2018-12-17T09:42:17.757Z,1005.08
2018-12-17T09:43:17.735Z,1005.20
2018-12-17T09:44:17.739Z,1005.21
2018-12-17T09:45:17.714Z,1005.19
2018-12-17T09:46:17.702Z,1005.21
2018-12-17T09:47:17.695Z,1005.23
2018-12-17T09:48:17.692Z,1005.23
2018-12-17T09:49:17.687Z,1005.23
2018-12-17T09:50:17.658Z,1005.20
2018-12-17T09:51:19.672Z,1005.23
2018-12-17T09:52:17.642Z,1005.27
2018-12-17T09:53:17.629Z,1005.24
2018-12-17T09:54:17.622Z,1005.32
2018-12-17T09:55:17.625Z,1005.31
2018-12-17T09:56:17.592Z,1005.28
2018-12-17T09:57:17.581Z,1005.29
2018-12-17T09:58:17.568Z,1005.17
2018-12-17T09:59:17.560Z,1005.23
2018-12-17T10:00:17.569Z,1005.30
2018-12-17T10:01:17.540Z,1005.24
2018-12-17T10:02:17.528Z,1005.21
2018-12-17T10:03:17.512Z,1005.30
2018-12-17T10:04:17.502Z,1005.29
2018-12-17T10:05:17.492Z,1005.30
2018-12-17T10:06:17.494Z,1005.23
2018-12-17T10:07:17.470Z,1005.29
2018-12-17T10:08:17.469Z,1005.25
2018-12-17T10:09:17.450Z,1005.26
2018-12-17T10:10:17.437Z,1005.24
2018-12-17T10:11:17.423Z,1005.21
2018-12-17T10:12:17.428Z,1005.22
2018-12-17T10:13:17.415Z,1005.20
2018-12-17T10:14:17.395Z,1005.25
2018-12-17T10:15:17.387Z,1005.25
2018-12-17T10:16:17.368Z,1005.20
2018-12-17T10:17:17.355Z,1005.14
2018-12-17T10:18:17.366Z,1005.12
2018-12-17T10:19:17.334Z,1005.12
2018-12-17T10:20:17.327Z,1005.11
2018-12-17T10:21:17.328Z,1005.14
2018-12-17T10:22:17.300Z,1005.13
2018-12-17T10:23:17.288Z,1005.15
2018-12-17T10:24:17.288Z,1005.15
2018-12-17T10:25:17.268Z,1005.15
2018-12-17T10:26:17.257Z,1005.06
2018-12-17T10:27:17.253Z,1005.08
2018-12-17T10:28:17.232Z,1005.09
2018-12-17T10:29:17.238Z,1005.13
2018-12-17T10:30:17.213Z,1005.08
2018-12-17T10:31:17.200Z,1005.10
2018-12-17T10:32:17.188Z,1005.06
2018-12-17T10:33:17.185Z,1005.10
2018-12-17T10:34:17.165Z,1005.06
2018-12-17T10:35:17.168Z,1005.07
2018-12-17T10:36:17.144Z,1005.11
2018-12-17T10:37:17.132Z,1005.08
2018-12-17T10:38:17.121Z,1005.11
2018-12-17T10:39:17.124Z,1005.13
2018-12-17T10:40:17.136Z,1005.15
2018-12-17T10:41:17.088Z,1005.15
2018-12-17T10:42:17.078Z,1005.16
2018-12-17T10:43:17.064Z,1005.17
2018-12-17T10:44:17.058Z,1005.18
2018-12-17T10:45:17.044Z,1005.21
2018-12-17T10:46:17.060Z,1005.15
2018-12-17T10:47:17.029Z,1005.20
2018-12-17T10:48:17.012Z,1005.18
2018-12-17T10:49:17.000Z,1005.16
2018-12-17T10:50:16.988Z,1005.19
2018-12-17T10:51:16.976Z,1005.13
2018-12-17T10:52:16.984Z,1005.12
2018-12-17T10:53:16.957Z,1005.15
2018-12-17T10:54:16.951Z,1005.12
2018-12-17T10:55:16.932Z,1005.13
2018-12-17T10:56:16.923Z,1005.13
2018-12-17T10:57:16.938Z,1005.15
2018-12-17T10:58:16.912Z,1005.12
2018-12-17T10:59:16.958Z,1005.13
2018-12-17T11:00:16.892Z,1005.10
2018-12-17T11:01:16.877Z,1005.15
2018-12-17T11:02:16.853Z,1005.10
2018-12-17T11:03:16.844Z,1005.16
2018-12-17T11:04:16.916Z,1005.16
2018-12-17T11:05:16.824Z,1005.14
2018-12-17T11:06:16.808Z,1005.13
2018-12-17T11:07:16.804Z,1005.10
2018-12-17T11:08:16.792Z,1005.19
2018-12-17T11:09:16.783Z,1005.17
2018-12-17T11:10:16.788Z,1005.18
2018-12-17T11:11:16.755Z,1005.18
2018-12-17T11:12:16.744Z,1005.15
2018-12-17T11:13:16.731Z,1005.20
2018-12-17T11:14:16.722Z,1005.20
2018-12-17T11:15:16.723Z,1005.21
2018-12-17T11:16:16.708Z,1005.21
2018-12-17T11:17:16.684Z,1005.24
2018-12-17T11:18:16.675Z,1005.26
2018-12-17T11:19:16.663Z,1005.28
2018-12-17T11:20:16.667Z,1005.27
2018-12-17T11:21:16.639Z,1005.28
2018-12-17T11:22:16.636Z,1005.30
2018-12-17T11:23:16.616Z,1005.24
2018-12-17T11:24:16.607Z,1005.26
2018-12-17T11:25:16.596Z,1005.29
2018-12-17T11:26:16.847Z,1005.29
2018-12-17T11:27:16.572Z,1005.28
2018-12-17T11:28:16.567Z,1005.27
2018-12-17T11:29:16.552Z,1005.26
2018-12-17T11:30:16.539Z,1005.27
2018-12-17T11:31:16.531Z,1005.29
2018-12-17T11:32:16.528Z,1005.25
2018-12-17T11:33:16.507Z,1005.22
2018-12-17T11:34:16.500Z,1005.28
2018-12-17T11:35:16.487Z,1005.22
2018-12-17T11:36:16.484Z,1005.22
2018-12-17T11:37:16.480Z,1005.20
2018-12-17T11:38:16.451Z,1005.23
2018-12-17T11:39:16.435Z,1005.18
2018-12-17T11:40:16.427Z,1005.23
2018-12-17T11:41:16.416Z,1005.23
2018-12-17T11:42:16.418Z,1005.20
2018-12-17T11:43:16.399Z,1005.20
2018-12-17T11:44:16.389Z,1005.20
2018-12-17T11:45:16.371Z,1005.21
2018-12-17T11:46:16.357Z,1005.19
2018-12-17T11:47:16.350Z,1005.20
2018-12-17T11:48:16.352Z,1005.22
2018-12-17T11:49:16.324Z,1005.20
2018-12-17T11:50:16.320Z,1005.24
2018-12-17T11:51:16.310Z,1005.24
2018-12-17T11:52:16.293Z,1005.22
2018-12-17T11:53:16.284Z,1005.23
2018-12-17T11:54:16.282Z,1005.25
2018-12-17T11:55:16.258Z,1005.24
2018-12-17T11:56:16.254Z,1005.23
2018-12-17T11:57:16.235Z,1005.16
2018-12-17T11:58:16.227Z,1005.17
2018-12-17T11:59:16.215Z,1005.20
2018-12-17T12:00:16.214Z,1005.20
2018-12-17T12:01:16.190Z,1005.23
2018-12-17T12:02:16.181Z,1005.18
2018-12-17T12:03:16.171Z,1005.17
2018-12-17T12:04:16.163Z,1005.25
2018-12-17T12:05:16.144Z,1005.26